sensor_id;sensor_type;location;lat;lon;timestamp;temperature;humidity
5358;DHT22;2702;51.014;7.170;2023-11-18T17:39:37;6.90;99.90
5358;DHT22;2702;51.014;7.170;2023-11-18T17:42:06;6.80;99.90
5358;DHT22;2702;51.014;7.170;2023-11-18T17:44:32;6.80;99.90
5358;DHT22;2702;51.014;7.170;2023-11-18T17:46:59;6.90;99.90
5358;DHT22;2702;51.014;7.170;2023-11-18T17:49:27;6.80;99.90
5358;DHT22;2702;51.014;7.170;2023-11-18T17:51:57;6.90;99.90
5358;DHT22;2702;51.014;7.170;2023-11-18T17:54:23;6.80;99.90
5358;DHT22;2702;51.014;7.170;2023-11-18T17:56:52;6.90;99.90
5358;DHT22;2702;51.014;7.170;2023-11-18T17:59:19;6.90;99.90
5358;DHT22;2702;51.014;7.170;2023-11-18T18:01:45;6.90;99.90
5358;DHT22;2702;51.014;7.170;2023-11-18T18:04:11;6.90;99.90
5358;DHT22;2702;51.014;7.170;2023-11-18T18:06:38;6.90;99.90
5358;DHT22;2702;51.014;7.170;2023-11-18T18:09:04;6.90;99.90
5358;DHT22;2702;51.014;7.170;2023-11-18T18:11:30;6.90;99.90
5358;DHT22;2702;51.014;7.170;2023-11-18T18:13:57;6.90;99.90
5358;DHT22;2702;51.014;7.170;2023-11-18T18:16:23;7.00;99.90
5358;DHT22;2702;51.014;7.170;2023-11-18T18:18:50;6.90;99.90
5358;DHT22;2702;51.014;7.170;2023-11-18T18:21:16;7.00;99.90
5358;DHT22;2702;51.014;7.170;2023-11-18T18:23:43;7.00;99.90
5358;DHT22;2702;51.014;7.170;2023-11-18T18:26:09;7.00;99.90
5358;DHT22;2702;51.014;7.170;2023-11-18T18:28:36;7.00;99.90
5358;DHT22;2702;51.014;7.170;2023-11-18T18:31:02;7.00;99.90
5358;DHT22;2702;51.014;7.170;2023-11-18T18:33:29;7.10;99.90
5358;DHT22;2702;51.014;7.170;2023-11-18T18:35:56;7.10;99.90
5358;DHT22;2702;51.014;7.170;2023-11-18T18:38:24;7.10;99.90
5358;DHT22;2702;51.014;7.170;2023-11-18T18:40:50;7.20;99.90
5358;DHT22;2702;51.014;7.170;2023-11-18T18:43:17;7.10;99.90
5358;DHT22;2702;51.014;7.170;2023-11-18T18:45:44;7.10;99.90
5358;DHT22;2702;51.014;7.170;2023-11-18T18:48:10;7.20;99.90
5358;DHT22;2702;51.014;7.170;2023-11-18T18:50:36;7.20;99.90
5358;DHT22;2702;51.014;7.170;2023-11-18T18:53:06;7.20;99.90
5358;DHT22;2702;51.014;7.170;2023-11-18T18:55:33;7.20;99.90
5358;DHT22;2702;51.014;7.170;2023-11-18T18:58:00;7.30;99.90
5358;DHT22;2702;51.014;7.170;2023-11-18T19:00:26;7.30;99.90
5358;DHT22;2702;51.014;7.170;2023-11-18T19:02:53;7.30;99.90
5358;DHT22;2702;51.014;7.170;2023-11-18T19:05:21;7.30;99.90
5358;DHT22;2702;51.014;7.170;2023-11-18T19:07:51;7.30;99.90
5358;DHT22;2702;51.014;7.170;2023-11-18T19:10:24;7.40;99.90
5358;DHT22;2702;51.014;7.170;2023-11-18T19:12:54;7.40;99.90
5358;DHT22;2702;51.014;7.170;2023-11-18T19:15:26;7.40;99.90
5358;DHT22;2702;51.014;7.170;2023-11-18T19:17:53;7.40;99.90
5358;DHT22;2702;51.014;7.170;2023-11-18T19:20:20;7.40;99.90
5358;DHT22;2702;51.014;7.170;2023-11-18T19:22:47;7.40;99.90
5358;DHT22;2702;51.014;7.170;2023-11-18T19:25:14;7.40;99.90
5358;DHT22;2702;51.014;7.170;2023-11-18T19:27:42;7.40;99.90
5358;DHT22;2702;51.014;7.170;2023-11-18T19:30:09;7.50;99.90
5358;DHT22;2702;51.014;7.170;2023-11-18T19:32:39;7.50;99.90
5358;DHT22;2702;51.014;7.170;2023-11-18T19:35:07;7.50;99.90
5358;DHT22;2702;51.014;7.170;2023-11-18T19:37:34;7.60;99.90
5358;DHT22;2702;51.014;7.170;2023-11-18T19:40:02;7.50;99.90
5358;DHT22;2702;51.014;7.170;2023-11-18T19:42:35;7.60;99.90
5358;DHT22;2702;51.014;7.170;2023-11-18T19:45:03;7.70;99.90
5358;DHT22;2702;51.014;7.170;2023-11-18T19:47:31;7.70;99.90
5358;DHT22;2702;51.014;7.170;2023-11-18T19:49:58;7.70;99.90
5358;DHT22;2702;51.014;7.170;2023-11-18T19:52:25;7.70;99.90
5358;DHT22;2702;51.014;7.170;2023-11-18T19:54:54;7.70;99.90
5358;DHT22;2702;51.014;7.170;2023-11-18T19:57:24;7.70;99.90
5358;DHT22;2702;51.014;7.170;2023-11-18T19:59:51;7.80;99.90
5358;DHT22;2702;51.014;7.170;2023-11-18T20:02:19;7.80;99.90
5358;DHT22;2702;51.014;7.170;2023-11-18T20:04:46;7.80;99.90
5358;DHT22;2702;51.014;7.170;2023-11-18T20:07:13;7.80;99.90
5358;DHT22;2702;51.014;7.170;2023-11-18T20:09:43;7.80;99.90
5358;DHT22;2702;51.014;7.170;2023-11-18T20:12:10;7.70;99.90
5358;DHT22;2702;51.014;7.170;2023-11-18T20:14:37;7.80;99.90
5358;DHT22;2702;51.014;7.170;2023-11-18T20:17:04;7.80;99.90
5358;DHT22;2702;51.014;7.170;2023-11-18T20:19:32;7.80;99.90
5358;DHT22;2702;51.014;7.170;2023-11-18T20:21:59;7.90;99.90
5358;DHT22;2702;51.014;7.170;2023-11-18T20:24:26;7.80;99.90
5358;DHT22;2702;51.014;7.170;2023-11-18T20:26:55;7.80;99.90
5358;DHT22;2702;51.014;7.170;2023-11-18T20:29:22;7.90;99.90
5358;DHT22;2702;51.014;7.170;2023-11-18T20:31:49;7.90;99.90
5358;DHT22;2702;51.014;7.170;2023-11-18T20:34:17;8.00;99.90
5358;DHT22;2702;51.014;7.170;2023-11-18T20:36:44;8.00;99.90
5358;DHT22;2702;51.014;7.170;2023-11-18T20:39:12;8.00;99.90
5358;DHT22;2702;51.014;7.170;2023-11-18T20:41:45;8.00;99.90
5358;DHT22;2702;51.014;7.170;2023-11-18T20:44:14;8.00;99.90
5358;DHT22;2702;51.014;7.170;2023-11-18T20:46:41;8.10;99.90
5358;DHT22;2702;51.014;7.170;2023-11-18T20:49:11;8.10;99.90
5358;DHT22;2702;51.014;7.170;2023-11-18T20:51:38;8.10;99.90
5358;DHT22;2702;51.014;7.170;2023-11-18T20:54:05;8.00;99.90
5358;DHT22;2702;51.014;7.170;2023-11-18T20:56:34;8.10;99.90
5358;DHT22;2702;51.014;7.170;2023-11-18T20:59:01;8.10;99.90
5358;DHT22;2702;51.014;7.170;2023-11-18T21:01:28;8.00;99.90
5358;DHT22;2702;51.014;7.170;2023-11-18T21:03:55;8.10;99.90
5358;DHT22;2702;51.014;7.170;2023-11-18T21:06:22;8.10;99.90
5358;DHT22;2702;51.014;7.170;2023-11-18T21:08:49;8.10;99.90
5358;DHT22;2702;51.014;7.170;2023-11-18T21:11:17;8.10;99.90
5358;DHT22;2702;51.014;7.170;2023-11-18T21:13:44;8.10;99.90
5358;DHT22;2702;51.014;7.170;2023-11-18T21:16:13;8.10;99.90
5358;DHT22;2702;51.014;7.170;2023-11-18T21:18:41;8.20;99.90
5358;DHT22;2702;51.014;7.170;2023-11-18T21:21:09;8.20;99.90
5358;DHT22;2702;51.014;7.170;2023-11-18T21:23:38;8.20;99.90
5358;DHT22;2702;51.014;7.170;2023-11-18T21:26:06;8.20;99.90
5358;DHT22;2702;51.014;7.170;2023-11-18T21:28:33;8.30;99.90
5358;DHT22;2702;51.014;7.170;2023-11-18T21:31:00;8.40;99.90
5358;DHT22;2702;51.014;7.170;2023-11-18T21:33:28;8.40;99.90
5358;DHT22;2702;51.014;7.170;2023-11-18T21:35:55;8.40;99.90
5358;DHT22;2702;51.014;7.170;2023-11-18T21:38:22;8.40;99.90
5358;DHT22;2702;51.014;7.170;2023-11-18T21:40:49;8.50;99.90
5358;DHT22;2702;51.014;7.170;2023-11-18T21:43:16;8.50;99.90
5358;DHT22;2702;51.014;7.170;2023-11-18T21:45:43;8.50;99.90
5358;DHT22;2702;51.014;7.170;2023-11-18T21:48:10;8.50;99.90
5358;DHT22;2702;51.014;7.170;2023-11-18T21:50:37;8.50;99.90
5358;DHT22;2702;51.014;7.170;2023-11-18T21:53:05;8.60;99.90
5358;DHT22;2702;51.014;7.170;2023-11-18T21:55:33;8.60;99.90
5358;DHT22;2702;51.014;7.170;2023-11-18T21:57:59;8.60;99.90
5358;DHT22;2702;51.014;7.170;2023-11-18T22:00:27;8.60;99.90
5358;DHT22;2702;51.014;7.170;2023-11-18T22:02:54;8.70;99.90
5358;DHT22;2702;51.014;7.170;2023-11-18T22:05:21;8.60;99.90
5358;DHT22;2702;51.014;7.170;2023-11-18T22:07:50;8.70;99.90
5358;DHT22;2702;51.014;7.170;2023-11-18T22:10:17;8.70;99.90
5358;DHT22;2702;51.014;7.170;2023-11-18T22:12:45;8.70;99.90
5358;DHT22;2702;51.014;7.170;2023-11-18T22:15:12;8.80;99.90
5358;DHT22;2702;51.014;7.170;2023-11-18T22:17:43;8.80;99.90
5358;DHT22;2702;51.014;7.170;2023-11-18T22:20:10;8.80;99.90
5358;DHT22;2702;51.014;7.170;2023-11-18T22:22:39;8.80;99.90
5358;DHT22;2702;51.014;7.170;2023-11-18T22:25:05;8.80;99.90
5358;DHT22;2702;51.014;7.170;2023-11-18T22:27:36;8.90;99.90
5358;DHT22;2702;51.014;7.170;2023-11-18T22:30:07;8.90;99.90
5358;DHT22;2702;51.014;7.170;2023-11-18T22:32:34;8.90;99.90
5358;DHT22;2702;51.014;7.170;2023-11-18T22:35:05;8.90;99.90
5358;DHT22;2702;51.014;7.170;2023-11-18T22:37:36;9.00;99.90
5358;DHT22;2702;51.014;7.170;2023-11-18T22:40:03;8.90;99.90
5358;DHT22;2702;51.014;7.170;2023-11-18T22:42:36;9.00;99.90
5358;DHT22;2702;51.014;7.170;2023-11-18T22:45:04;9.00;99.90
5358;DHT22;2702;51.014;7.170;2023-11-18T22:47:31;9.10;99.90
5358;DHT22;2702;51.014;7.170;2023-11-18T22:49:58;9.10;99.90
5358;DHT22;2702;51.014;7.170;2023-11-18T22:52:26;9.20;99.90
5358;DHT22;2702;51.014;7.170;2023-11-18T22:54:52;9.20;99.90
5358;DHT22;2702;51.014;7.170;2023-11-18T22:57:18;9.20;99.90
5358;DHT22;2702;51.014;7.170;2023-11-18T22:59:45;9.10;99.90
5358;DHT22;2702;51.014;7.170;2023-11-18T23:02:12;9.20;99.90
5358;DHT22;2702;51.014;7.170;2023-11-18T23:04:42;9.30;99.90
5358;DHT22;2702;51.014;7.170;2023-11-18T23:07:11;9.30;99.90
5358;DHT22;2702;51.014;7.170;2023-11-18T23:09:38;9.30;99.90
5358;DHT22;2702;51.014;7.170;2023-11-18T23:12:05;9.30;99.90
5358;DHT22;2702;51.014;7.170;2023-11-18T23:14:32;9.30;99.90
5358;DHT22;2702;51.014;7.170;2023-11-18T23:16:59;9.40;99.90
5358;DHT22;2702;51.014;7.170;2023-11-18T23:19:25;9.40;99.90
5358;DHT22;2702;51.014;7.170;2023-11-18T23:21:52;9.40;99.90
5358;DHT22;2702;51.014;7.170;2023-11-18T23:24:18;9.40;99.90
5358;DHT22;2702;51.014;7.170;2023-11-18T23:26:46;9.40;99.90
5358;DHT22;2702;51.014;7.170;2023-11-18T23:29:13;9.40;99.90
5358;DHT22;2702;51.014;7.170;2023-11-18T23:31:39;9.40;99.90
5358;DHT22;2702;51.014;7.170;2023-11-18T23:34:08;9.50;99.90
5358;DHT22;2702;51.014;7.170;2023-11-18T23:36:35;9.50;99.90
5358;DHT22;2702;51.014;7.170;2023-11-18T23:39:01;9.50;99.90
5358;DHT22;2702;51.014;7.170;2023-11-18T23:41:27;9.50;99.90
5358;DHT22;2702;51.014;7.170;2023-11-18T23:43:55;9.60;99.90
5358;DHT22;2702;51.014;7.170;2023-11-18T23:46:21;9.60;99.90
5358;DHT22;2702;51.014;7.170;2023-11-18T23:48:48;9.60;99.90
5358;DHT22;2702;51.014;7.170;2023-11-18T23:51:16;9.70;99.90
5358;DHT22;2702;51.014;7.170;2023-11-18T23:53:43;9.70;99.90
5358;DHT22;2702;51.014;7.170;2023-11-18T23:56:10;9.70;99.90
5358;DHT22;2702;51.014;7.170;2023-11-18T23:58:36;9.70;99.90
